Time;durP1;ratioP1;P1;durP2;ratioP2;P2;SDS_P1;SDS_P2;PMS_P1;PMS_P2;Temp;Humidity;BMP_temperature;BMP_pressure;BME280_temperature;BME280_humidity;BME280_pressure;Samples;Min_cycle;Max_cycle;Signal;HPM_P1;HPM_P2
2022/07/02 00:00:02;;;;;;;5.00;2.13;;;24.80;49.30;;;;;;5052085;28;20433;-83
2022/07/02 00:02:30;;;;;;;4.13;2.23;;;25.00;49.00;;;;;;5052143;28;20481;-83
2022/07/02 00:04:59;;;;;;;3.80;2.10;;;25.20;48.50;;;;;;5050377;28;20453;-83
2022/07/02 00:07:28;;;;;;;2.90;2.53;;;25.30;48.00;;;;;;5052092;28;20473;-83
2022/07/02 00:09:57;;;;;;;7.10;2.40;;;25.40;47.60;;;;;;5053767;28;20470;-84
2022/07/02 00:12:25;;;;;;;8.73;2.07;;;25.50;47.50;;;;;;5051990;28;20461;-84
2022/07/02 00:14:55;;;;;;;2.13;1.90;;;25.60;47.20;;;;;;5053937;28;20488;-84
2022/07/02 00:17:23;;;;;;;3.80;1.90;;;25.70;46.90;;;;;;5051672;28;20988;-84
2022/07/02 00:19:52;;;;;;;4.47;1.93;;;25.80;46.60;;;;;;5051167;28;20453;-83
2022/07/02 00:22:20;;;;;;;2.00;1.70;;;25.90;46.50;;;;;;5055969;28;20473;-84
2022/07/02 00:24:48;;;;;;;2.10;1.90;;;25.90;46.20;;;;;;5057511;28;20449;-84
2022/07/02 00:27:17;;;;;;;3.53;1.77;;;26.00;46.10;;;;;;5067382;28;20568;-84
2022/07/02 00:29:50;;;;;;;2.73;1.47;;;26.00;45.90;;;;;;5072277;28;20504;-83
2022/07/02 00:32:19;;;;;;;5.40;2.10;;;26.10;46.00;;;;;;5082894;28;20499;-84
2022/07/02 00:34:48;;;;;;;1.43;1.40;;;26.10;45.70;;;;;;5082943;28;20444;-84
2022/07/02 00:37:15;;;;;;;1.73;1.60;;;26.20;45.60;;;;;;5065044;28;20428;-84
2022/07/02 00:39:43;;;;;;;3.10;1.63;;;26.20;45.50;;;;;;5054316;28;20481;-84
2022/07/02 00:42:11;;;;;;;1.90;1.80;;;26.20;45.40;;;;;;5061488;28;20446;-84
2022/07/02 00:44:39;;;;;;;3.37;1.87;;;26.20;45.20;;;;;;5061268;28;20413;-85
2022/07/02 00:47:09;;;;;;;2.13;1.50;;;26.30;45.20;;;;;;5061330;28;20480;-84
2022/07/02 00:49:38;;;;;;;1.80;1.60;;;26.30;45.10;;;;;;5060617;28;20446;-83
2022/07/02 00:52:07;;;;;;;2.80;1.70;;;26.30;45.10;;;;;;5050834;28;20459;-84
2022/07/02 00:54:36;;;;;;;1.97;1.60;;;26.30;45.00;;;;;;5057057;28;20476;-84
2022/07/02 00:57:05;;;;;;;1.30;1.30;;;26.40;45.00;;;;;;5042204;28;20414;-83
2022/07/02 00:59:33;;;;;;;1.63;1.53;;;26.40;44.80;;;;;;5042012;28;20512;-85
2022/07/02 01:02:01;;;;;;;2.40;1.43;;;26.40;44.70;;;;;;5042549;28;20493;-84
2022/07/02 01:04:30;;;;;;;1.60;1.50;;;26.40;44.70;;;;;;5041975;28;20485;-84
2022/07/02 01:07:03;;;;;;;1.30;1.30;;;26.40;44.70;;;;;;5042937;28;20426;-84
2022/07/02 01:12:18;;;;;;;3.03;1.60;;;26.40;44.70;;;;;;5053809;28;20467;-84
2022/07/02 01:14:46;;;;;;;4.70;1.60;;;26.40;44.60;;;;;;5042057;28;20454;-82
2022/07/02 01:17:14;;;;;;;3.20;1.50;;;26.40;44.60;;;;;;5042900;28;20470;-84
2022/07/02 01:19:42;;;;;;;2.97;1.70;;;26.40;44.50;;;;;;5041692;28;20422;-85
2022/07/02 01:22:16;;;;;;;2.60;1.70;;;26.40;44.40;;;;;;5042875;28;20483;-82
2022/07/02 01:24:45;;;;;;;4.60;1.63;;;26.40;44.50;;;;;;5041930;28;20426;-84
2022/07/02 01:27:13;;;;;;;2.00;1.90;;;26.40;44.50;;;;;;5055762;28;20510;-84
2022/07/02 01:29:41;;;;;;;3.60;1.77;;;26.40;44.20;;;;;;5063295;28;20444;-85
2022/07/02 01:32:09;;;;;;;3.63;1.40;;;26.50;44.40;;;;;;5064379;28;20520;-84
2022/07/02 01:34:39;;;;;;;1.47;1.40;;;26.50;44.40;;;;;;5058428;28;20521;-84
2022/07/02 01:37:08;;;;;;;1.60;1.50;;;26.50;44.30;;;;;;5063323;28;20436;-84
2022/07/02 01:39:37;;;;;;;2.23;1.50;;;26.50;44.20;;;;;;5066988;28;21003;-85
2022/07/02 01:42:06;;;;;;;1.67;1.60;;;26.50;44.30;;;;;;5065437;28;20480;-84
2022/07/02 01:44:34;;;;;;;1.47;1.37;;;26.50;44.30;;;;;;5056823;28;20448;-84
2022/07/02 01:47:02;;;;;;;1.17;1.17;;;26.50;44.20;;;;;;5063726;28;20409;-84
2022/07/02 01:49:30;;;;;;;1.40;1.30;;;26.50;44.20;;;;;;5063771;28;20517;-85
2022/07/02 01:51:58;;;;;;;1.37;1.20;;;26.50;44.10;;;;;;5063063;28;20852;-84
2022/07/02 01:54:26;;;;;;;1.67;1.57;;;26.50;44.00;;;;;;5061404;28;20457;-85
2022/07/02 01:56:55;;;;;;;1.80;1.70;;;26.50;44.20;;;;;;5061136;28;20417;-85
2022/07/02 01:59:23;;;;;;;1.40;1.30;;;26.50;44.10;;;;;;5058676;28;20466;-84
2022/07/02 02:01:51;;;;;;;1.33;1.23;;;26.50;44.00;;;;;;5064165;28;20450;-85
2022/07/02 02:04:18;;;;;;;1.57;1.47;;;26.40;44.00;;;;;;5064225;28;20500;-85
2022/07/02 02:06:46;;;;;;;2.83;1.40;;;26.40;44.00;;;;;;5063325;28;20444;-84
2022/07/02 02:09:14;;;;;;;1.40;1.30;;;26.40;44.00;;;;;;5062355;28;20518;-84
2022/07/02 02:11:43;;;;;;;1.60;1.47;;;26.40;43.90;;;;;;5060682;28;20481;-84
2022/07/02 02:14:12;;;;;;;1.53;1.43;;;26.40;44.00;;;;;;5059971;28;20428;-84
2022/07/02 02:16:40;;;;;;;1.67;1.30;;;26.40;43.80;;;;;;5054176;28;20421;-85
2022/07/02 02:19:08;;;;;;;1.33;1.23;;;26.50;44.00;;;;;;5040073;28;20516;-86
2022/07/02 02:21:36;;;;;;;1.30;1.30;;;26.40;43.80;;;;;;5040151;28;20518;-84
2022/07/02 02:24:05;;;;;;;1.33;1.33;;;26.40;44.50;;;;;;5039517;28;20459;-84
2022/07/02 02:26:33;;;;;;;1.47;1.37;;;26.50;44.00;;;;;;5039134;28;20431;-84
2022/07/02 02:29:00;;;;;;;1.50;1.40;;;26.40;43.80;;;;;;5038878;28;20812;-83
2022/07/02 02:31:30;;;;;;;1.63;1.53;;;26.40;43.90;;;;;;5047358;28;20456;-84
2022/07/02 02:33:58;;;;;;;1.50;1.40;;;26.40;43.80;;;;;;5049687;28;20569;-85
2022/07/02 02:36:26;;;;;;;1.47;1.37;;;26.50;43.90;;;;;;5058671;28;20451;-84
2022/07/02 02:38:54;;;;;;;1.93;1.63;;;26.50;43.90;;;;;;5058694;28;20500;-83
2022/07/02 02:41:22;;;;;;;1.57;1.47;;;26.50;43.80;;;;;;5059021;28;20485;-84
2022/07/02 02:43:50;;;;;;;1.67;1.57;;;26.40;43.80;;;;;;5058765;28;20557;-84
2022/07/02 02:46:18;;;;;;;1.47;1.37;;;26.40;43.90;;;;;;5058747;28;20435;-84
2022/07/02 02:48:47;;;;;;;1.50;1.40;;;26.40;43.90;;;;;;5053342;28;20454;-84
2022/07/02 02:51:15;;;;;;;2.93;1.40;;;26.40;43.80;;;;;;5045582;28;20469;-86
2022/07/02 02:53:43;;;;;;;1.83;1.50;;;26.40;43.90;;;;;;5041144;28;20446;-85
2022/07/02 02:56:11;;;;;;;1.83;1.47;;;26.40;43.80;;;;;;5040968;28;20463;-85
2022/07/02 02:58:39;;;;;;;1.37;1.27;;;26.40;43.80;;;;;;5040649;28;20439;-84
2022/07/02 03:01:07;;;;;;;1.73;1.50;;;26.40;43.80;;;;;;5040508;28;20528;-84
2022/07/02 03:03:35;;;;;;;1.33;1.23;;;26.40;43.70;;;;;;5039471;28;20442;-84
2022/07/02 03:06:04;;;;;;;1.47;1.37;;;26.40;43.90;;;;;;5051315;28;20440;-84
2022/07/02 03:08:32;;;;;;;1.40;1.30;;;26.40;43.90;;;;;;5044465;28;20434;-85
2022/07/02 03:11:00;;;;;;;5.07;1.20;;;26.40;43.90;;;;;;5040742;28;20414;-84
2022/07/02 03:13:28;;;;;;;1.20;1.20;;;26.40;43.80;;;;;;5041317;28;20459;-84
2022/07/02 03:15:56;;;;;;;1.20;1.10;;;26.40;43.70;;;;;;5040595;28;20435;-84
2022/07/02 03:18:24;;;;;;;2.03;1.70;;;26.40;43.80;;;;;;5041576;28;20455;-83
2022/07/02 03:20:54;;;;;;;1.50;1.40;;;26.40;43.70;;;;;;5047033;28;20514;-84
2022/07/02 03:23:23;;;;;;;1.30;1.20;;;26.40;43.90;;;;;;5055885;28;20463;-84
2022/07/02 03:25:51;;;;;;;3.33;1.70;;;26.40;43.70;;;;;;5041034;28;20454;-84
2022/07/02 03:28:19;;;;;;;1.37;1.20;;;26.40;43.80;;;;;;5040402;28;20857;-84
2022/07/02 03:30:47;;;;;;;1.40;1.40;;;26.40;43.80;;;;;;5041188;28;20489;-84
2022/07/02 03:33:15;;;;;;;1.50;1.40;;;26.40;43.60;;;;;;5041496;28;20532;-84
2022/07/02 03:35:42;;;;;;;1.40;1.30;;;26.40;43.60;;;;;;5041980;28;20444;-84
2022/07/02 03:38:10;;;;;;;1.60;1.50;;;26.40;43.60;;;;;;5042752;28;20479;-85
2022/07/02 03:40:39;;;;;;;1.23;1.23;;;26.40;43.60;;;;;;5052872;28;20443;-84
2022/07/02 03:43:07;;;;;;;1.50;1.40;;;26.40;43.60;;;;;;5045453;28;20434;-84
2022/07/02 03:45:35;;;;;;;2.93;1.33;;;26.40;43.60;;;;;;5042424;28;20443;-84
2022/07/02 03:48:03;;;;;;;1.40;1.30;;;26.40;44.20;;;;;;5042874;28;20443;-84
2022/07/02 03:50:31;;;;;;;1.10;1.10;;;26.40;43.60;;;;;;5043002;28;20472;-84
2022/07/02 03:52:58;;;;;;;2.23;1.10;;;26.30;43.30;;;;;;5047241;28;20503;-84
2022/07/02 03:55:26;;;;;;;1.40;1.40;;;26.40;43.60;;;;;;5054888;28;20443;-84
2022/07/02 03:57:55;;;;;;;1.80;1.50;;;26.40;43.40;;;;;;5042666;28;20418;-85
2022/07/02 04:00:23;;;;;;;3.23;1.53;;;26.40;43.50;;;;;;5042540;28;20533;-84
2022/07/02 04:02:51;;;;;;;1.90;1.80;;;26.40;43.30;;;;;;5041734;28;20471;-84
2022/07/02 04:05:19;;;;;;;1.60;1.23;;;26.40;43.50;;;;;;5041934;28;20428;-85
2022/07/02 04:07:47;;;;;;;1.63;1.50;;;26.40;43.50;;;;;;5042625;28;20500;-84
2022/07/02 04:10:15;;;;;;;1.40;1.30;;;26.40;43.30;;;;;;5051611;28;20506;-86
2022/07/02 04:12:43;;;;;;;2.07;1.47;;;26.40;43.50;;;;;;5058295;28;20494;-85
2022/07/02 04:15:12;;;;;;;1.40;1.30;;;26.40;43.40;;;;;;5060346;28;20439;-84
2022/07/02 04:17:40;;;;;;;1.70;1.60;;;26.40;43.30;;;;;;5059872;28;20466;-84
2022/07/02 04:20:08;;;;;;;2.27;1.53;;;26.40;43.30;;;;;;5060375;28;20465;-84
2022/07/02 04:22:36;;;;;;;1.60;1.50;;;26.40;43.30;;;;;;5060902;28;20536;-84
2022/07/02 04:25:05;;;;;;;2.20;1.50;;;26.40;43.30;;;;;;5059375;28;20429;-85
2022/07/02 04:27:33;;;;;;;1.50;1.40;;;26.40;43.20;;;;;;5043545;28;20436;-85
2022/07/02 04:30:01;;;;;;;1.57;1.47;;;26.40;43.20;;;;;;5043818;28;20511;-85
2022/07/02 04:32:36;;;;;;;1.50;1.40;;;26.40;43.30;;;;;;5044234;28;20553;-83
2022/07/02 04:35:05;;;;;;;1.57;1.47;;;26.40;43.90;;;;;;5045789;28;20431;-84
2022/07/02 04:37:33;;;;;;;1.33;1.23;;;26.40;43.20;;;;;;5045096;28;20447;-85
2022/07/02 04:40:01;;;;;;;2.03;1.33;;;26.40;43.20;;;;;;5045501;28;20452;-84
2022/07/02 04:42:29;;;;;;;1.83;1.50;;;26.40;43.30;;;;;;5055982;28;20445;-84
2022/07/02 04:44:57;;;;;;;1.40;1.40;;;26.40;43.10;;;;;;5064639;28;20438;-85
2022/07/02 04:47:25;;;;;;;1.73;1.27;;;26.40;43.20;;;;;;5066038;28;20434;-84
2022/07/02 04:49:54;;;;;;;1.53;1.40;;;26.40;43.20;;;;;;5064676;28;20975;-84
2022/07/02 04:52:22;;;;;;;1.60;1.50;;;26.50;43.10;;;;;;5065034;28;20449;-85
2022/07/02 04:54:50;;;;;;;1.60;1.50;;;26.50;43.10;;;;;;5064939;28;20434;-85
2022/07/02 04:57:18;;;;;;;5.73;1.33;;;26.50;43.20;;;;;;5065425;28;20482;-84
2022/07/02 04:59:46;;;;;;;1.50;1.40;;;26.50;43.20;;;;;;5062329;28;20542;-84
2022/07/02 05:02:14;;;;;;;1.57;1.47;;;26.50;43.00;;;;;;5059052;28;20487;-84
2022/07/02 05:04:42;;;;;;;2.10;1.30;;;26.50;43.20;;;;;;5046958;28;20448;-84
2022/07/02 05:07:12;;;;;;;1.93;1.73;;;26.50;43.10;;;;;;5045815;28;20436;-85
2022/07/02 05:09:45;;;;;;;1.40;1.30;;;26.50;43.00;;;;;;5046700;28;20538;-85
2022/07/02 05:12:13;;;;;;;1.40;1.30;;;26.50;43.20;;;;;;5046181;28;20434;-83
2022/07/02 05:14:41;;;;;;;1.60;1.50;;;26.50;43.00;;;;;;5045103;28;20442;-84
2022/07/02 05:17:09;;;;;;;2.70;1.10;;;26.60;43.00;;;;;;5045769;28;20508;-84
2022/07/02 05:19:37;;;;;;;1.63;1.20;;;26.60;43.10;;;;;;5053697;28;20438;-84
2022/07/02 05:22:05;;;;;;;1.57;1.47;;;26.60;42.90;;;;;;5060225;28;20486;-84
2022/07/02 05:24:34;;;;;;;1.60;1.40;;;26.60;43.00;;;;;;5063591;28;20420;-84
2022/07/02 05:27:02;;;;;;;1.30;1.30;;;26.60;43.00;;;;;;5064579;28;20435;-84
2022/07/02 05:29:30;;;;;;;3.90;1.70;;;26.60;43.00;;;;;;5064987;28;20509;-84
2022/07/02 05:31:58;;;;;;;1.20;1.20;;;26.60;43.00;;;;;;5065727;28;20434;-84
2022/07/02 05:34:25;;;;;;;1.60;1.50;;;26.60;43.00;;;;;;5063312;28;20450;-85
2022/07/02 05:36:53;;;;;;;1.47;1.30;;;26.60;43.00;;;;;;5054964;28;20462;-84
2022/07/02 05:39:21;;;;;;;2.40;1.60;;;26.60;43.10;;;;;;5045681;28;20402;-84
2022/07/02 05:41:50;;;;;;;2.03;1.40;;;26.70;42.90;;;;;;5045237;28;20414;-84
2022/07/02 05:44:18;;;;;;;1.43;1.13;;;26.70;42.80;;;;;;5045557;28;20443;-84
2022/07/02 05:46:46;;;;;;;2.10;1.33;;;26.60;42.90;;;;;;5045289;28;20463;-85
2022/07/02 05:49:14;;;;;;;1.40;1.17;;;26.60;42.80;;;;;;5041927;28;20517;-84
2022/07/02 05:51:42;;;;;;;1.70;1.27;;;26.60;42.90;;;;;;5059967;28;20485;-84
2022/07/02 05:54:10;;;;;;;1.47;1.40;;;26.70;43.00;;;;;;5063193;28;20477;-84
2022/07/02 05:56:38;;;;;;;2.60;1.20;;;26.70;42.90;;;;;;5063391;28;20501;-84
2022/07/02 05:59:07;;;;;;;1.40;1.30;;;26.80;42.90;;;;;;5061226;28;20421;-84
2022/07/02 06:01:35;;;;;;;1.57;1.20;;;26.70;42.80;;;;;;5061149;28;20506;-84
2022/07/02 06:04:03;;;;;;;1.53;1.40;;;26.80;42.80;;;;;;5061595;28;20441;-86
2022/07/02 06:09:17;;;;;;;1.17;1.17;;;26.80;42.80;;;;;;5059439;28;20535;-85
2022/07/02 06:11:45;;;;;;;1.63;1.53;;;26.80;42.90;;;;;;5046017;28;20498;-84
2022/07/02 06:14:14;;;;;;;1.50;1.40;;;26.80;42.70;;;;;;5041889;28;20433;-84
2022/07/02 06:16:42;;;;;;;1.50;1.40;;;26.80;42.90;;;;;;5042626;28;20478;-85
2022/07/02 06:19:10;;;;;;;1.30;1.20;;;26.80;42.70;;;;;;5042901;28;20452;-85
2022/07/02 06:21:39;;;;;;;1.43;1.33;;;26.80;42.60;;;;;;5042483;28;20534;-85
2022/07/02 06:24:09;;;;;;;2.07;1.40;;;26.90;42.80;;;;;;5045963;28;20486;-84
2022/07/02 06:26:37;;;;;;;1.50;1.40;;;26.90;42.70;;;;;;5053291;28;20472;-85
2022/07/02 06:29:05;;;;;;;1.70;1.37;;;26.90;42.80;;;;;;5062758;28;20454;-84
2022/07/02 06:31:34;;;;;;;1.30;1.30;;;26.90;42.60;;;;;;5067793;28;20482;-85
2022/07/02 06:34:03;;;;;;;1.60;1.50;;;26.90;42.60;;;;;;5065205;28;20483;-85
2022/07/02 06:36:31;;;;;;;2.43;1.40;;;26.90;42.70;;;;;;5064331;28;20450;-85
2022/07/02 06:38:59;;;;;;;1.80;1.33;;;27.00;42.70;;;;;;5063938;28;20454;-85
2022/07/02 06:44:12;;;;;;;1.80;1.27;;;27.00;42.60;;;;;;5046748;28;20428;-85
2022/07/02 06:46:42;;;;;;;2.83;1.13;;;27.00;42.70;;;;;;5061858;28;20526;-85
2022/07/02 06:49:10;;;;;;;3.40;1.80;;;27.10;42.60;;;;;;5062340;28;20439;-85
2022/07/02 06:51:37;;;;;;;1.60;1.30;;;27.10;42.60;;;;;;5059654;28;20505;-85
2022/07/02 06:54:05;;;;;;;3.27;1.47;;;27.10;42.40;;;;;;5061455;28;20462;-85
2022/07/02 06:56:35;;;;;;;1.50;1.40;;;27.20;42.50;;;;;;5059537;28;20432;-83
2022/07/02 06:59:03;;;;;;;2.03;1.03;;;27.20;42.30;;;;;;5056120;28;20520;-86
2022/07/02 07:01:31;;;;;;;2.13;1.20;;;27.20;42.40;;;;;;5064832;28;20412;-85
2022/07/02 07:04:00;;;;;;;1.80;1.43;;;27.30;42.50;;;;;;5065125;28;20464;-85
2022/07/02 07:06:29;;;;;;;2.10;1.70;;;27.30;42.50;;;;;;5065037;28;20455;-85
2022/07/02 07:08:56;;;;;;;1.33;1.27;;;27.40;42.70;;;;;;5065768;28;20429;-86
2022/07/02 07:11:24;;;;;;;1.57;1.40;;;27.40;42.60;;;;;;5065351;28;20480;-86
2022/07/02 07:13:52;;;;;;;1.63;1.43;;;27.50;42.60;;;;;;5063892;28;20464;-86
2022/07/02 07:16:20;;;;;;;1.73;1.40;;;27.50;42.40;;;;;;5044630;28;20481;-85
2022/07/02 07:18:49;;;;;;;2.83;1.63;;;27.50;42.40;;;;;;5063450;28;20433;-86
2022/07/02 07:21:19;;;;;;;2.20;1.17;;;27.60;42.40;;;;;;5065267;28;20451;-86
2022/07/02 07:23:46;;;;;;;1.53;1.43;;;27.60;42.40;;;;;;5065274;28;20452;-85
2022/07/02 07:26:14;;;;;;;1.33;1.23;;;27.60;42.30;;;;;;5064838;28;20458;-86
2022/07/02 07:28:43;;;;;;;1.70;1.60;;;27.70;42.20;;;;;;5064491;28;20449;-86
2022/07/02 07:31:10;;;;;;;1.83;1.37;;;27.70;42.20;;;;;;5057106;28;20561;-85
2022/07/02 07:33:40;;;;;;;1.53;1.10;;;27.70;42.10;;;;;;5058128;28;20470;-84
2022/07/02 07:36:08;;;;;;;1.50;1.27;;;27.70;42.00;;;;;;5056735;28;20451;-84
2022/07/02 07:38:37;;;;;;;4.73;1.33;;;27.80;42.00;;;;;;5055950;28;20894;-85
2022/07/02 07:41:05;;;;;;;1.53;1.10;;;27.80;41.90;;;;;;5068609;28;20525;-85
2022/07/02 07:43:33;;;;;;;1.47;1.00;;;27.90;42.00;;;;;;5065950;28;20482;-86
2022/07/02 07:46:01;;;;;;;1.40;1.30;;;27.90;42.00;;;;;;5065537;28;20462;-86
2022/07/02 07:48:29;;;;;;;1.47;1.37;;;28.00;42.20;;;;;;5053397;28;20455;-86
2022/07/02 07:50:57;;;;;;;1.47;1.20;;;28.00;42.10;;;;;;5043302;28;20498;-86
2022/07/02 07:53:25;;;;;;;5.90;1.63;;;28.10;42.10;;;;;;5061132;28;20529;-86
2022/07/02 07:55:55;;;;;;;2.20;1.37;;;28.20;42.00;;;;;;5071790;28;20405;-86
2022/07/02 07:58:22;;;;;;;5.13;1.40;;;28.30;42.00;;;;;;5078618;28;20504;-86
2022/07/02 08:00:50;;;;;;;3.13;1.30;;;28.30;42.00;;;;;;5081911;28;20422;-86
2022/07/02 08:03:18;;;;;;;1.50;1.30;;;28.40;41.80;;;;;;5068532;28;20497;-86
2022/07/02 08:05:47;;;;;;;1.20;1.20;;;28.50;41.90;;;;;;5076860;28;20431;-86
2022/07/02 08:08:14;;;;;;;1.47;1.37;;;28.50;41.70;;;;;;5086567;28;20441;-86
2022/07/02 08:10:42;;;;;;;1.33;1.10;;;28.60;41.80;;;;;;5088172;28;20436;-85
2022/07/02 08:13:11;;;;;;;1.80;1.07;;;28.60;41.50;;;;;;5088111;28;20453;-85
2022/07/02 08:15:39;;;;;;;1.50;1.40;;;28.70;41.40;;;;;;5087689;28;20484;-83
2022/07/02 08:18:08;;;;;;;1.50;1.30;;;28.80;41.30;;;;;;5086959;28;20469;-85
2022/07/02 08:20:36;;;;;;;5.83;1.40;;;28.90;41.00;;;;;;5068053;28;20497;-85
2022/07/02 08:23:03;;;;;;;3.33;1.10;;;28.90;41.50;;;;;;5058821;28;20470;-86
2022/07/02 08:25:31;;;;;;;3.73;1.30;;;29.00;40.80;;;;;;5054688;28;20427;-84
2022/07/02 08:27:59;;;;;;;1.57;1.20;;;29.10;40.80;;;;;;5059226;28;20459;-85
2022/07/02 08:30:28;;;;;;;1.23;1.10;;;29.10;40.80;;;;;;5058460;28;20457;-85
2022/07/02 08:32:56;;;;;;;1.10;1.00;;;29.20;40.60;;;;;;5062777;28;20475;-86
2022/07/02 08:35:24;;;;;;;1.00;0.90;;;29.20;40.30;;;;;;5065772;28;20458;-84
2022/07/02 08:37:52;;;;;;;1.43;1.00;;;29.20;40.00;;;;;;5058964;28;20428;-85
2022/07/02 08:40:23;;;;;;;2.00;1.10;;;29.30;39.90;;;;;;5056904;28;20427;-84
2022/07/02 08:42:51;;;;;;;1.87;1.20;;;29.40;39.80;;;;;;5050685;28;20459;-83
2022/07/02 08:45:19;;;;;;;2.10;1.10;;;29.40;39.60;;;;;;5043963;28;20448;-83
2022/07/02 08:47:48;;;;;;;3.80;1.43;;;29.50;39.60;;;;;;5038857;28;20475;-81
2022/07/02 08:50:16;;;;;;;1.10;1.00;;;29.60;39.10;;;;;;5039317;28;20527;-82
2022/07/02 08:52:44;;;;;;;1.00;0.90;;;29.70;39.00;;;;;;5043831;28;20479;-83
2022/07/02 08:55:14;;;;;;;1.20;1.13;;;29.80;39.00;;;;;;5048136;28;20477;-83
2022/07/02 08:57:42;;;;;;;1.33;1.00;;;29.80;38.70;;;;;;5043358;28;20443;-83
2022/07/02 09:00:10;;;;;;;9.17;1.10;;;29.90;38.80;;;;;;5043026;28;20470;-82
2022/07/02 09:02:38;;;;;;;2.40;1.03;;;30.00;38.90;;;;;;5043417;28;20543;-85
2022/07/02 09:05:09;;;;;;;13.80;2.10;;;30.00;38.60;;;;;;5042615;28;20530;-85
2022/07/02 09:07:37;;;;;;;1.27;0.90;;;29.80;36.90;;;;;;5040385;28;20472;-82
2022/07/02 09:10:06;;;;;;;3.17;1.10;;;29.10;35.40;;;;;;5039822;28;20458;-81
2022/07/02 09:12:34;;;;;;;1.67;1.00;;;28.90;34.90;;;;;;5055749;28;20474;-82
2022/07/02 09:15:01;;;;;;;2.50;0.93;;;28.60;35.00;;;;;;5061951;28;20995;-84
2022/07/02 09:17:29;;;;;;;1.10;0.80;;;28.40;34.00;;;;;;5073108;28;20510;-83
2022/07/02 09:19:57;;;;;;;1.20;0.90;;;27.70;34.20;;;;;;5045137;28;20439;-85
2022/07/02 09:22:33;;;;;;;8.70;1.27;;;27.80;35.80;;;;;;5043474;28;20538;-85
2022/07/02 09:25:09;;;;;;;1.20;1.00;;;28.00;35.80;;;;;;5043507;28;20405;-83
2022/07/02 09:27:37;;;;;;;4.27;1.20;;;27.50;35.40;;;;;;5043628;28;20548;-82
2022/07/02 09:30:07;;;;;;;2.73;1.33;;;27.30;36.50;;;;;;5058200;28;20541;-82
2022/07/02 09:32:39;;;;;;;5.90;1.10;;;27.70;36.80;;;;;;5057209;28;20562;-81
2022/07/02 09:35:07;;;;;;;1.70;1.10;;;27.70;36.20;;;;;;5055561;28;20886;-81
2022/07/02 09:37:37;;;;;;;3.17;1.17;;;28.10;37.20;;;;;;5073592;28;20201;-83
2022/07/02 09:40:06;;;;;;;1.33;1.23;;;27.90;35.90;;;;;;5078961;28;20537;-83
2022/07/02 09:42:35;;;;;;;1.50;1.10;;;27.70;36.60;;;;;;5082899;28;20548;-82
2022/07/02 09:45:03;;;;;;;1.30;1.20;;;27.90;35.10;;;;;;5065424;28;20574;-82
2022/07/02 09:47:32;;;;;;;3.57;1.13;;;28.20;35.50;;;;;;5065574;28;20453;-84
2022/07/02 09:50:03;;;;;;;1.37;1.17;;;28.50;35.20;;;;;;5064210;28;20439;-84
2022/07/02 09:52:31;;;;;;;4.20;1.60;;;28.80;35.40;;;;;;5061809;28;20477;-82
2022/07/02 09:55:00;;;;;;;1.63;1.23;;;28.80;34.60;;;;;;5061856;28;20504;-85
2022/07/02 09:57:28;;;;;;;5.67;1.30;;;28.60;34.60;;;;;;5068742;28;20437;-85
2022/07/02 10:00:04;;;;;;;1.73;1.43;;;28.60;34.50;;;;;;5062610;28;20449;-84
2022/07/02 10:02:32;;;;;;;2.00;1.30;;;28.40;35.20;;;;;;5059828;28;20466;-81
2022/07/02 10:05:04;;;;;;;1.70;1.10;;;28.60;35.10;;;;;;5042246;28;20410;-84
2022/07/02 10:07:32;;;;;;;4.20;1.70;;;28.50;34.90;;;;;;5046673;28;20449;-83
2022/07/02 10:10:03;;;;;;;2.30;1.10;;;28.50;35.40;;;;;;5055022;28;20510;-87
2022/07/02 10:12:33;;;;;;;2.20;1.63;;;28.70;35.20;;;;;;5066021;28;20473;-88
2022/07/02 10:15:04;;;;;;;1.10;1.00;;;28.80;35.70;;;;;;5075084;28;20449;-87
2022/07/02 10:17:34;;;;;;;4.53;1.40;;;28.80;35.00;;;;;;5075964;28;20515;-87
2022/07/02 10:20:03;;;;;;;3.50;1.60;;;28.80;35.70;;;;;;5070637;28;20522;-87
2022/07/02 10:22:32;;;;;;;2.33;1.50;;;28.90;35.60;;;;;;5057467;28;20442;-83
2022/07/02 10:25:03;;;;;;;1.27;1.17;;;28.90;35.20;;;;;;5056665;28;20450;-89
2022/07/02 10:27:31;;;;;;;1.20;1.10;;;28.90;35.50;;;;;;5059295;28;20482;-87
2022/07/02 10:29:59;;;;;;;5.17;1.50;;;29.00;35.60;;;;;;5050238;28;20493;-85
2022/07/02 10:32:31;;;;;;;1.93;1.33;;;28.80;35.20;;;;;;5060631;28;20481;-86
2022/07/02 10:35:06;;;;;;;1.43;1.33;;;28.90;35.80;;;;;;5042961;28;20478;-87
2022/07/02 10:37:34;;;;;;;2.00;1.17;;;29.10;34.70;;;;;;5037484;28;20451;-86
2022/07/02 10:40:04;;;;;;;1.90;1.47;;;29.00;34.70;;;;;;5038733;28;20481;-87
2022/07/02 10:42:39;;;;;;;1.60;1.20;;;28.80;34.90;;;;;;5042640;28;20486;-84
2022/07/02 10:45:12;;;;;;;1.77;1.10;;;28.90;34.90;;;;;;5044168;28;20474;-83
2022/07/02 10:47:53;;;;;;;1.17;1.07;;;29.20;35.40;;;;;;5061141;28;20445;-82
2022/07/02 10:50:23;;;;;;;1.97;1.37;;;29.40;35.20;;;;;;5059408;28;20450;-83
2022/07/02 10:52:54;;;;;;;5.03;1.07;;;29.30;34.40;;;;;;5059578;28;20497;-83
2022/07/02 10:55:30;;;;;;;1.73;1.60;;;29.00;34.40;;;;;;5060820;28;20431;-83
2022/07/02 10:57:58;;;;;;;2.43;1.60;;;28.90;34.90;;;;;;5061349;28;20500;-83
2022/07/02 11:00:27;;;;;;;1.40;1.10;;;29.00;35.10;;;;;;5061260;28;20467;-83
2022/07/02 11:02:56;;;;;;;2.67;1.10;;;29.10;34.60;;;;;;5061932;28;20469;-85
2022/07/02 11:05:24;;;;;;;1.50;1.33;;;28.40;34.80;;;;;;5054162;28;20478;-86
2022/07/02 11:07:52;;;;;;;6.20;1.30;;;28.40;36.50;;;;;;5049914;28;20453;-83
2022/07/02 11:10:28;;;;;;;2.03;1.20;;;29.00;34.90;;;;;;5048348;28;20470;-84
2022/07/02 11:13:01;;;;;;;9.03;1.10;;;29.10;34.20;;;;;;5041087;28;20471;-82
2022/07/02 11:15:34;;;;;;;2.30;1.00;;;29.30;34.70;;;;;;5047588;28;20471;-79
2022/07/02 11:18:03;;;;;;;1.07;0.93;;;29.30;34.30;;;;;;5053750;28;20514;-79
2022/07/02 11:20:31;;;;;;;1.53;1.10;;;29.50;34.00;;;;;;5038408;28;20482;-79
2022/07/02 11:22:59;;;;;;;2.03;1.10;;;29.70;34.00;;;;;;5045409;28;20524;-80
2022/07/02 11:25:29;;;;;;;1.30;1.17;;;30.00;32.80;;;;;;5040074;28;20466;-80
2022/07/02 11:27:58;;;;;;;3.13;1.67;;;30.10;32.40;;;;;;5039147;28;20467;-79
2022/07/02 11:30:28;;;;;;;1.67;0.93;;;29.70;32.00;;;;;;5037786;28;20463;-78
2022/07/02 11:32:56;;;;;;;3.00;1.00;;;29.30;32.70;;;;;;5045884;28;20472;-79
2022/07/02 11:35:24;;;;;;;1.73;0.90;;;29.30;33.20;;;;;;5035057;28;20450;-79
2022/07/02 11:37:56;;;;;;;2.57;1.90;;;29.20;32.70;;;;;;5033063;28;20422;-79
2022/07/02 11:40:24;;;;;;;1.30;1.10;;;29.50;34.00;;;;;;5041529;28;20440;-79
2022/07/02 11:42:52;;;;;;;3.20;1.43;;;29.00;33.90;;;;;;5041441;28;20552;-79
2022/07/02 11:45:20;;;;;;;1.03;0.93;;;29.20;33.90;;;;;;5040659;28;20556;-79
2022/07/02 11:47:50;;;;;;;1.10;1.10;;;29.20;33.30;;;;;;5040840;28;20530;-79
2022/07/02 11:50:27;;;;;;;1.00;0.90;;;29.20;33.10;;;;;;5051859;28;20454;-80
2022/07/02 11:52:55;;;;;;;1.10;1.00;;;29.10;33.90;;;;;;5063613;28;21003;-81
2022/07/02 11:55:23;;;;;;;2.40;1.00;;;29.30;33.90;;;;;;5054949;28;20510;-80
2022/07/02 11:57:51;;;;;;;3.17;1.00;;;29.60;34.30;;;;;;5042828;28;20469;-79
2022/07/02 12:00:19;;;;;;;1.73;1.00;;;29.80;33.10;;;;;;5043761;28;20446;-80
2022/07/02 12:02:48;;;;;;;1.63;1.00;;;29.90;33.30;;;;;;5047532;28;20523;-78
2022/07/02 12:05:17;;;;;;;1.50;1.40;;;29.70;32.60;;;;;;5043957;28;20447;-81
2022/07/02 12:07:45;;;;;;;4.87;1.10;;;29.70;32.80;;;;;;5051862;28;20447;-80
2022/07/02 12:10:13;;;;;;;2.50;1.00;;;29.60;33.00;;;;;;5063544;28;20450;-79
2022/07/02 12:12:41;;;;;;;1.20;1.10;;;29.60;33.30;;;;;;5062592;28;20533;-79
2022/07/02 12:15:09;;;;;;;1.70;0.97;;;29.70;32.90;;;;;;5062845;28;20509;-79
2022/07/02 12:17:46;;;;;;;1.63;1.30;;;29.80;33.70;;;;;;5064232;28;20558;-79
2022/07/02 12:20:16;;;;;;;4.90;1.40;;;28.90;33.40;;;;;;5062932;28;20450;-80
2022/07/02 12:22:52;;;;;;;3.57;1.20;;;29.20;34.60;;;;;;5066162;28;20518;-80
2022/07/02 12:25:19;;;;;;;6.40;1.07;;;29.60;34.60;;;;;;5070060;28;20422;-80
2022/07/02 12:27:53;;;;;;;1.93;1.07;;;29.80;34.10;;;;;;5047100;28;20501;-79
2022/07/02 12:30:20;;;;;;;1.47;1.00;;;30.00;34.10;;;;;;5037027;28;20459;-78
2022/07/02 12:32:52;;;;;;;6.23;1.10;;;30.10;34.20;;;;;;5036641;28;20444;-78
2022/07/02 12:35:21;;;;;;;2.50;0.93;;;30.20;34.20;;;;;;5040654;28;20526;-78
2022/07/02 12:37:52;;;;;;;4.97;1.00;;;30.40;34.20;;;;;;5039330;28;20542;-78
2022/07/02 12:40:21;;;;;;;2.50;1.27;;;30.60;34.00;;;;;;5048060;28;20549;-79
2022/07/02 12:42:51;;;;;;;4.17;1.40;;;30.60;33.80;;;;;;5045823;28;20487;-79
2022/07/02 12:45:23;;;;;;;3.80;1.17;;;30.60;33.90;;;;;;5036779;28;20439;-79
2022/07/02 12:47:56;;;;;;;3.73;1.20;;;30.60;34.20;;;;;;5039262;28;20531;-80
2022/07/02 12:50:26;;;;;;;1.47;1.17;;;30.70;34.10;;;;;;5045179;28;20462;-80
2022/07/02 12:52:56;;;;;;;2.43;1.10;;;30.80;33.80;;;;;;5046622;28;20486;-81
2022/07/02 12:55:24;;;;;;;3.90;1.20;;;30.90;34.00;;;;;;5046648;28;20478;-79
2022/07/02 12:57:52;;;;;;;2.13;0.90;;;30.80;33.50;;;;;;5062970;28;20481;-80
2022/07/02 13:00:21;;;;;;;2.70;1.00;;;30.80;34.20;;;;;;5052799;28;20454;-80
2022/07/02 13:02:58;;;;;;;2.83;1.10;;;30.80;34.20;;;;;;5050624;28;20460;-81